createdAt,value
2016-10-22T00:00:54.208Z,6.85
2016-10-22T00:01:53.058Z,6.89
2016-10-22T00:02:52.587Z,6.87
2016-10-22T00:03:53.411Z,6.85
2016-10-22T00:04:53.452Z,6.89
2016-10-22T00:05:53.534Z,6.85
2016-10-22T00:06:52.538Z,6.92
2016-10-22T00:07:54.085Z,6.87
2016-10-22T00:08:53.442Z,6.87
2016-10-22T00:09:52.957Z,6.92
2016-10-22T00:10:52.591Z,6.87
2016-10-22T00:11:53.078Z,6.84
2016-10-22T00:12:53.308Z,6.87
2016-10-22T00:13:53.369Z,6.88
2016-10-22T00:14:53.439Z,6.87
2016-10-22T00:15:53.272Z,6.84
2016-10-22T00:16:53.396Z,6.89
2016-10-22T00:17:53.385Z,6.96
2016-10-22T00:18:52.674Z,6.96
2016-10-22T00:19:52.768Z,6.92
2016-10-22T00:20:53.078Z,6.92
2016-10-22T00:21:53.000Z,6.92
2016-10-22T00:22:54.290Z,6.89
2016-10-22T00:23:53.032Z,6.89
2016-10-22T00:24:53.288Z,6.85
2016-10-22T00:25:52.751Z,6.93
2016-10-22T00:26:53.136Z,6.89
2016-10-22T00:27:52.832Z,6.92
2016-10-22T00:28:54.455Z,6.92
2016-10-22T00:29:53.935Z,6.87
2016-10-22T00:30:53.278Z,6.95
2016-10-22T00:31:54.319Z,6.89
2016-10-22T00:32:53.945Z,6.93
2016-10-22T00:33:53.213Z,6.89
2016-10-22T00:34:53.326Z,6.87
2016-10-22T00:35:53.384Z,6.85
2016-10-22T00:36:53.833Z,6.87
2016-10-22T00:37:52.737Z,6.92
2016-10-22T00:38:54.130Z,6.93
2016-10-22T00:39:54.296Z,6.92
2016-10-22T00:40:53.256Z,6.93
2016-10-22T00:41:53.162Z,6.92
2016-10-22T00:42:54.314Z,6.84
2016-10-22T00:43:53.057Z,6.88
2016-10-22T00:44:53.645Z,6.87
2016-10-22T00:45:53.938Z,6.85
2016-10-22T00:46:53.414Z,6.92
2016-10-22T00:47:53.943Z,6.85
2016-10-22T00:48:53.234Z,6.89
2016-10-22T00:49:53.285Z,6.84
2016-10-22T00:50:53.677Z,6.85
2016-10-22T00:51:53.820Z,6.85
2016-10-22T00:52:54.966Z,6.88
2016-10-22T00:53:54.198Z,6.88
2016-10-22T00:54:54.453Z,6.92
2016-10-22T00:55:54.425Z,6.89
2016-10-22T00:56:53.832Z,6.85
2016-10-22T00:57:53.112Z,6.95
2016-10-22T00:58:54.001Z,6.87
2016-10-22T00:59:54.013Z,6.92
2016-10-22T01:00:54.146Z,6.92
2016-10-22T01:01:54.021Z,6.85
2016-10-22T01:02:53.725Z,6.84
2016-10-22T01:03:54.086Z,6.88
2016-10-22T01:04:54.067Z,6.96
2016-10-22T01:05:54.904Z,6.84
2016-10-22T01:06:53.908Z,6.84
2016-10-22T01:07:54.101Z,6.82
2016-10-22T01:08:54.217Z,6.92
2016-10-22T01:09:55.591Z,6.92
2016-10-22T01:10:53.644Z,6.97
2016-10-22T01:11:54.024Z,6.81
2016-10-22T01:12:54.062Z,6.82
2016-10-22T01:13:54.593Z,6.81
2016-10-22T01:14:54.364Z,6.82
2016-10-22T01:15:54.334Z,6.85
2016-10-22T01:16:54.403Z,6.82
2016-10-22T01:17:54.476Z,6.85
2016-10-22T01:18:53.955Z,6.78
2016-10-22T01:19:54.527Z,6.87
2016-10-22T01:20:54.738Z,6.78
2016-10-22T01:21:54.517Z,6.79
2016-10-22T01:22:54.187Z,6.88
2016-10-22T01:23:53.937Z,6.77
2016-10-22T01:24:54.438Z,6.79
2016-10-22T01:25:54.123Z,6.87
2016-10-22T01:26:54.817Z,6.87
2016-10-22T01:27:54.939Z,6.81
2016-10-22T01:28:54.008Z,6.85
2016-10-22T01:29:54.270Z,6.87
2016-10-22T01:30:54.928Z,6.82
2016-10-22T01:31:54.483Z,6.84
2016-10-22T01:32:54.322Z,6.88
2016-10-22T01:33:54.425Z,6.85
2016-10-22T01:34:55.043Z,6.84
2016-10-22T01:35:54.589Z,6.79
2016-10-22T01:36:54.661Z,6.84
2016-10-22T01:37:54.528Z,6.84
2016-10-22T01:38:55.117Z,6.82
2016-10-22T01:39:55.478Z,6.85
2016-10-22T01:40:54.516Z,6.79
2016-10-22T01:41:54.624Z,6.84
2016-10-22T01:42:54.112Z,6.87
2016-10-22T01:43:54.635Z,6.85
2016-10-22T01:44:55.190Z,6.88
2016-10-22T01:45:54.257Z,6.87
2016-10-22T01:46:54.606Z,6.81
2016-10-22T01:47:54.903Z,6.88
2016-10-22T01:48:55.290Z,6.82
2016-10-22T01:49:54.256Z,6.88
2016-10-22T01:50:54.273Z,6.82
2016-10-22T01:51:54.598Z,6.79
2016-10-22T01:52:54.721Z,6.79
2016-10-22T01:53:55.145Z,6.78
2016-10-22T01:54:54.480Z,6.74
2016-10-22T01:55:54.978Z,6.79
2016-10-22T01:56:54.979Z,6.85
2016-10-22T01:57:55.657Z,6.77
2016-10-22T01:58:54.334Z,6.82
2016-10-22T01:59:55.552Z,6.74
2016-10-22T02:00:54.895Z,6.69
2016-10-22T02:01:54.864Z,6.78
2016-10-22T02:02:54.399Z,6.72
2016-10-22T02:03:54.628Z,6.63
2016-10-22T02:04:55.097Z,6.72
2016-10-22T02:05:56.061Z,6.77
2016-10-22T02:06:54.979Z,6.7
2016-10-22T02:07:54.754Z,6.7
2016-10-22T02:08:54.212Z,6.69
2016-10-22T02:09:55.364Z,6.72
2016-10-22T02:10:55.587Z,6.69
2016-10-22T02:11:55.354Z,6.74
2016-10-22T02:12:54.800Z,6.64
2016-10-22T02:13:55.560Z,6.69
2016-10-22T02:14:54.593Z,6.69
2016-10-22T02:15:55.342Z,6.7
2016-10-22T02:16:54.874Z,6.7
2016-10-22T02:17:55.094Z,6.72
2016-10-22T02:18:54.908Z,6.69
2016-10-22T02:19:55.420Z,6.72
2016-10-22T02:20:55.275Z,6.7
2016-10-22T02:21:55.492Z,6.7
2016-10-22T02:22:56.273Z,6.63
2016-10-22T02:23:55.076Z,6.7
2016-10-22T02:24:54.977Z,6.74
2016-10-22T02:25:54.326Z,6.75
2016-10-22T02:26:54.883Z,6.69
2016-10-22T02:27:54.747Z,6.72
2016-10-22T02:28:55.145Z,6.75
2016-10-22T02:29:54.836Z,6.77
2016-10-22T02:30:55.330Z,6.63
2016-10-22T02:31:54.653Z,6.75
2016-10-22T02:32:55.052Z,6.72
2016-10-22T02:33:56.236Z,6.6
2016-10-22T02:34:55.735Z,6.74
2016-10-22T02:35:55.749Z,6.72
2016-10-22T02:36:55.721Z,6.74
2016-10-22T02:37:54.848Z,6.67
2016-10-22T02:38:55.032Z,6.66
2016-10-22T02:39:54.885Z,6.67
2016-10-22T02:40:55.770Z,6.64
2016-10-22T02:41:55.214Z,6.64
2016-10-22T02:42:56.610Z,6.63
2016-10-22T02:43:55.482Z,6.67
2016-10-22T02:44:56.038Z,6.64
2016-10-22T02:45:55.350Z,6.62
2016-10-22T02:46:55.868Z,6.63
2016-10-22T02:47:56.214Z,6.66
2016-10-22T02:48:55.637Z,6.62
2016-10-22T02:49:55.161Z,6.67
2016-10-22T02:50:55.502Z,6.64
2016-10-22T02:51:55.641Z,6.64
2016-10-22T02:52:55.857Z,6.66
2016-10-22T02:53:56.260Z,6.63
2016-10-22T02:54:55.518Z,6.66
2016-10-22T02:55:55.039Z,6.63
2016-10-22T02:57:24.498Z,6.66
2016-10-22T02:57:55.036Z,6.66
2016-10-22T02:58:55.897Z,6.69
2016-10-22T02:59:56.205Z,6.63
2016-10-22T03:00:55.949Z,6.62
2016-10-22T03:01:55.835Z,6.74
2016-10-22T03:02:55.237Z,6.7
2016-10-22T03:03:57.595Z,6.63
2016-10-22T03:04:55.955Z,6.66
2016-10-22T03:05:55.307Z,6.66
2016-10-22T03:06:55.999Z,6.66
2016-10-22T03:07:55.953Z,6.67
2016-10-22T03:08:55.994Z,6.67
2016-10-22T03:09:56.392Z,6.64
2016-10-22T03:10:56.502Z,6.63
2016-10-22T03:11:56.334Z,6.69
2016-10-22T03:12:56.814Z,6.64
2016-10-22T03:13:55.819Z,6.64
2016-10-22T03:14:55.256Z,6.63
2016-10-22T03:15:55.926Z,6.52
2016-10-22T03:16:55.256Z,6.6
2016-10-22T03:17:56.173Z,6.64
2016-10-22T03:18:56.667Z,6.62
2016-10-22T03:19:55.821Z,6.52
2016-10-22T03:20:55.475Z,6.63
2016-10-22T03:21:56.365Z,6.6
2016-10-22T03:22:55.647Z,6.63
2016-10-22T03:23:56.651Z,6.56
2016-10-22T03:24:57.212Z,6.62
2016-10-22T03:25:55.693Z,6.62
2016-10-22T03:26:56.281Z,6.62
2016-10-22T03:27:55.545Z,6.62
2016-10-22T03:28:56.979Z,6.56
2016-10-22T03:29:55.938Z,6.56
2016-10-22T03:30:56.601Z,6.54
2016-10-22T03:31:56.305Z,6.6
2016-10-22T03:32:57.530Z,6.64
2016-10-22T03:33:55.883Z,6.66
2016-10-22T03:34:57.204Z,6.6
2016-10-22T03:35:56.703Z,6.64
2016-10-22T03:36:56.738Z,6.69
2016-10-22T03:37:56.219Z,6.54
2016-10-22T03:38:56.622Z,6.67
2016-10-22T03:39:56.426Z,6.64
2016-10-22T03:40:56.201Z,6.66
2016-10-22T03:41:56.042Z,6.7
2016-10-22T03:42:56.620Z,6.66
2016-10-22T03:43:57.419Z,6.69
2016-10-22T03:44:56.672Z,6.64
2016-10-22T03:45:56.940Z,6.63
2016-10-22T03:46:57.192Z,6.69
2016-10-22T03:47:55.991Z,6.7
2016-10-22T03:48:58.172Z,6.63
2016-10-22T03:49:56.571Z,6.6
2016-10-22T03:50:57.287Z,6.64
2016-10-22T03:51:56.089Z,6.62
2016-10-22T03:52:56.538Z,6.6
2016-10-22T03:53:56.998Z,6.6
2016-10-22T03:54:56.092Z,6.6
2016-10-22T03:55:56.405Z,6.6
2016-10-22T03:56:56.800Z,6.63
2016-10-22T03:57:57.259Z,6.6
2016-10-22T03:58:56.605Z,6.67
2016-10-22T03:59:56.841Z,6.63
2016-10-22T04:00:57.246Z,6.57
2016-10-22T04:01:56.932Z,6.67
2016-10-22T04:02:57.775Z,6.59
2016-10-22T04:03:57.836Z,6.62
2016-10-22T04:04:56.881Z,6.63
2016-10-22T04:05:57.286Z,6.63
2016-10-22T04:06:56.913Z,6.59
2016-10-22T04:07:57.354Z,6.57
2016-10-22T04:08:56.683Z,6.56
2016-10-22T04:09:57.131Z,6.56
2016-10-22T04:10:57.326Z,6.57
2016-10-22T04:11:57.336Z,6.59
2016-10-22T04:12:56.592Z,6.49
2016-10-22T04:13:57.120Z,6.54
2016-10-22T04:14:57.362Z,6.54
2016-10-22T04:15:57.203Z,6.63
2016-10-22T04:16:57.211Z,6.57
2016-10-22T04:17:58.795Z,6.57
2016-10-22T04:18:56.258Z,6.51
2016-10-22T04:19:57.034Z,6.63
2016-10-22T04:20:57.208Z,6.56
2016-10-22T04:21:56.317Z,6.6
2016-10-22T04:22:56.817Z,6.59
2016-10-22T04:23:56.848Z,6.52
2016-10-22T04:24:57.700Z,6.6
2016-10-22T04:25:58.119Z,6.63
2016-10-22T04:26:58.099Z,6.57
2016-10-22T04:27:56.834Z,6.59
2016-10-22T04:28:56.811Z,6.62
2016-10-22T04:29:57.284Z,6.57
2016-10-22T04:30:57.239Z,6.67
2016-10-22T04:31:58.492Z,6.62
2016-10-22T04:32:57.625Z,6.6
2016-10-22T04:33:57.293Z,6.54
2016-10-22T04:34:57.996Z,6.56
2016-10-22T04:35:57.688Z,6.57
2016-10-22T04:36:57.212Z,6.51
2016-10-22T04:37:57.217Z,6.56
2016-10-22T04:38:59.064Z,6.56
2016-10-22T04:39:57.424Z,6.54
2016-10-22T04:40:57.833Z,6.6
2016-10-22T04:41:57.722Z,6.62
2016-10-22T04:42:59.241Z,6.59
2016-10-22T04:43:57.415Z,6.63
2016-10-22T04:44:58.131Z,6.64
2016-10-22T04:45:58.326Z,6.66
2016-10-22T04:46:57.652Z,6.64
2016-10-22T04:47:57.898Z,6.74
2016-10-22T04:48:58.119Z,6.63
2016-10-22T04:49:58.838Z,6.77
2016-10-22T04:50:57.147Z,6.67
2016-10-22T04:51:58.076Z,6.77
2016-10-22T04:52:57.696Z,6.6
2016-10-22T04:53:58.462Z,6.72
2016-10-22T04:54:58.368Z,6.63
2016-10-22T04:55:59.065Z,6.77
2016-10-22T04:56:58.085Z,6.72
2016-10-22T04:57:58.243Z,6.72
2016-10-22T04:58:57.747Z,6.72
2016-10-22T04:59:59.254Z,6.74
2016-10-22T05:00:58.144Z,6.74
2016-10-22T05:01:58.418Z,6.74
2016-10-22T05:02:57.795Z,6.7
2016-10-22T05:03:58.296Z,6.77
2016-10-22T05:04:58.906Z,6.7
2016-10-22T05:05:58.840Z,6.74
2016-10-22T05:06:57.652Z,6.77
2016-10-22T05:07:58.436Z,6.74
2016-10-22T05:08:58.100Z,6.69
2016-10-22T05:09:59.312Z,6.69
2016-10-22T05:10:59.046Z,6.72
2016-10-22T05:11:58.088Z,6.7
2016-10-22T05:12:58.904Z,6.63
2016-10-22T05:13:58.961Z,6.74
2016-10-22T05:14:59.161Z,6.72
2016-10-22T05:15:57.859Z,6.7
2016-10-22T05:16:58.183Z,6.7
2016-10-22T05:17:57.401Z,6.66
2016-10-22T05:18:58.010Z,6.69
2016-10-22T05:19:58.043Z,6.72
2016-10-22T05:20:58.095Z,6.67
2016-10-22T05:21:57.851Z,6.67
2016-10-22T05:22:58.539Z,6.85
2016-10-22T05:23:58.885Z,6.74
2016-10-22T05:24:58.108Z,6.74
2016-10-22T05:25:59.111Z,6.82
2016-10-22T05:26:57.992Z,6.78
2016-10-22T05:27:59.878Z,6.74
2016-10-22T05:28:58.922Z,6.81
2016-10-22T05:29:59.432Z,6.78
2016-10-22T05:30:58.214Z,6.81
2016-10-22T05:31:59.332Z,6.77
2016-10-22T05:32:58.199Z,6.79
2016-10-22T05:33:57.998Z,6.84
2016-10-22T05:34:58.478Z,6.85
2016-10-22T05:35:58.401Z,6.74
2016-10-22T05:36:58.226Z,6.81
2016-10-22T05:37:59.346Z,6.75
2016-10-22T05:38:58.129Z,6.84
2016-10-22T05:39:59.413Z,6.85
2016-10-22T05:40:59.202Z,6.87
2016-10-22T05:41:59.151Z,6.78
2016-10-22T05:42:58.306Z,6.87
2016-10-22T05:43:58.598Z,6.78
2016-10-22T05:44:57.820Z,6.81
2016-10-22T05:46:00.467Z,6.88
2016-10-22T05:46:57.863Z,6.87
2016-10-22T05:47:58.290Z,6.85
2016-10-22T05:48:58.394Z,6.82
2016-10-22T05:49:58.284Z,6.88
2016-10-22T05:50:59.246Z,6.82
2016-10-22T05:51:58.392Z,6.82
2016-10-22T05:52:58.412Z,6.84
2016-10-22T05:53:58.339Z,6.82
2016-10-22T05:54:58.256Z,6.87
2016-10-22T05:55:58.273Z,6.85
2016-10-22T05:56:59.202Z,6.88
2016-10-22T05:57:58.171Z,6.79
2016-10-22T05:58:58.253Z,6.87
2016-10-22T05:59:58.842Z,6.81
2016-10-22T06:00:58.916Z,6.88
2016-10-22T06:01:59.303Z,6.92
2016-10-22T06:02:58.239Z,6.82
2016-10-22T06:03:59.247Z,6.88
2016-10-22T06:04:59.233Z,6.85
2016-10-22T06:05:58.069Z,6.89
2016-10-22T06:07:00.096Z,6.85
2016-10-22T06:07:59.449Z,6.88
2016-10-22T06:08:58.835Z,6.88
2016-10-22T06:09:59.674Z,6.92
2016-10-22T06:10:58.373Z,6.84
2016-10-22T06:11:58.880Z,6.95
2016-10-22T06:12:59.013Z,6.85
2016-10-22T06:13:59.593Z,6.88
2016-10-22T06:14:59.494Z,6.88
2016-10-22T06:15:59.151Z,6.95
2016-10-22T06:16:58.789Z,6.92
2016-10-22T06:17:59.523Z,6.88
2016-10-22T06:18:59.037Z,6.87
2016-10-22T06:19:59.964Z,6.88
2016-10-22T06:20:59.415Z,6.92
2016-10-22T06:21:59.279Z,6.95
2016-10-22T06:22:58.303Z,6.88
2016-10-22T06:23:59.409Z,6.95
2016-10-22T06:25:00.085Z,6.96
2016-10-22T06:25:58.924Z,6.96
2016-10-22T06:26:58.427Z,6.95
2016-10-22T06:28:00.114Z,6.93
2016-10-22T06:28:59.684Z,7
2016-10-22T06:29:59.379Z,7
2016-10-22T06:30:59.161Z,6.99
2016-10-22T06:32:00.014Z,6.96
2016-10-22T06:32:59.209Z,6.95
2016-10-22T06:33:59.233Z,6.93
2016-10-22T06:34:58.956Z,7.03
2016-10-22T06:35:59.208Z,7.07
2016-10-22T06:36:59.610Z,7.03
2016-10-22T06:37:59.470Z,7.03
2016-10-22T06:38:59.692Z,7.06
2016-10-22T06:39:59.387Z,7
2016-10-22T06:40:59.421Z,7.06
2016-10-22T06:41:59.088Z,7.03
2016-10-22T06:42:59.137Z,7.07
2016-10-22T06:43:59.706Z,7
2016-10-22T06:44:59.980Z,7.06
2016-10-22T06:45:59.597Z,7
2016-10-22T06:46:59.910Z,7.07
2016-10-22T06:47:58.884Z,7.11
2016-10-22T06:48:58.819Z,7.11
2016-10-22T06:50:00.061Z,7.13
2016-10-22T06:50:59.297Z,7.02
2016-10-22T06:51:59.362Z,7.15
2016-10-22T06:52:59.044Z,7.15
2016-10-22T06:53:59.351Z,7.17
2016-10-22T06:54:58.470Z,7.11
2016-10-22T06:55:59.290Z,7.17
2016-10-22T06:57:00.422Z,7.18
2016-10-22T06:58:00.396Z,7.2
2016-10-22T06:58:59.517Z,7.17
2016-10-22T06:59:59.889Z,7.18
2016-10-22T07:00:59.408Z,7.15
2016-10-22T07:01:59.652Z,7.18
2016-10-22T07:02:59.432Z,7.18
2016-10-22T07:03:59.311Z,7.13
2016-10-22T07:04:59.649Z,7.14
2016-10-22T07:05:59.810Z,7.14
2016-10-22T07:06:59.675Z,7.17
2016-10-22T07:07:59.515Z,7.15
2016-10-22T07:09:00.020Z,7.2
2016-10-22T07:10:00.014Z,7.2
2016-10-22T07:11:00.730Z,7.2
2016-10-22T07:11:59.720Z,7.02
2016-10-22T07:12:59.282Z,7.18
2016-10-22T07:13:59.742Z,7.18
2016-10-22T07:15:00.184Z,7.18
2016-10-22T07:16:00.114Z,7.21
2016-10-22T07:16:59.452Z,7.23
2016-10-22T07:18:00.101Z,7.18
2016-10-22T07:18:59.543Z,7.2
2016-10-22T07:20:00.559Z,7.29
2016-10-22T07:21:00.272Z,7.25
2016-10-22T07:22:00.321Z,7.29
2016-10-22T07:23:00.247Z,7.31
2016-10-22T07:23:59.444Z,7.32
2016-10-22T07:24:59.333Z,7.4
2016-10-22T07:26:00.025Z,7.39
2016-10-22T07:27:00.675Z,7.4
2016-10-22T07:27:59.729Z,7.33
2016-10-22T07:29:00.205Z,7.33
2016-10-22T07:30:00.608Z,7.36
2016-10-22T07:31:00.283Z,7.39
2016-10-22T07:32:00.178Z,7.4
2016-10-22T07:32:59.418Z,7.45
2016-10-22T07:34:00.268Z,7.4
2016-10-22T07:34:59.242Z,7.4
2016-10-22T07:36:01.022Z,7.42
2016-10-22T07:37:00.218Z,7.47
2016-10-22T07:37:59.887Z,7.4
2016-10-22T07:39:00.510Z,7.45
2016-10-22T07:40:00.483Z,7.38
2016-10-22T07:41:00.704Z,7.35
2016-10-22T07:42:00.053Z,7.33
2016-10-22T07:43:00.124Z,7.4
2016-10-22T07:43:59.563Z,7.42
2016-10-22T07:45:00.114Z,7.42
2016-10-22T07:45:59.530Z,7.43
2016-10-22T07:47:00.801Z,7.47
2016-10-22T07:48:00.624Z,7.4
2016-10-22T07:49:00.783Z,7.4
2016-10-22T07:50:00.529Z,7.51
2016-10-22T07:50:59.913Z,7.45
2016-10-22T07:52:00.005Z,7.4
2016-10-22T07:53:00.686Z,7.35
2016-10-22T07:53:59.922Z,7.39
2016-10-22T07:55:00.448Z,7.38
2016-10-22T07:55:59.765Z,7.47
2016-10-22T07:57:00.594Z,7.38
2016-10-22T07:58:00.136Z,7.4
2016-10-22T07:59:00.866Z,7.48
2016-10-22T08:00:00.291Z,7.47
2016-10-22T08:01:00.047Z,7.45
2016-10-22T08:02:00.637Z,7.48
2016-10-22T08:03:00.874Z,7.54
2016-10-22T08:04:01.048Z,7.53
2016-10-22T08:05:00.379Z,7.5
2016-10-22T08:06:00.376Z,7.58
2016-10-22T08:07:00.819Z,7.47
2016-10-22T08:08:01.495Z,7.48
2016-10-22T08:09:00.222Z,7.54
2016-10-22T08:10:00.218Z,7.57
2016-10-22T08:11:00.751Z,7.5
2016-10-22T08:12:00.611Z,7.54
2016-10-22T08:13:00.281Z,7.6
2016-10-22T08:14:00.941Z,7.56
2016-10-22T08:15:01.243Z,7.58
2016-10-22T08:16:00.696Z,7.63
2016-10-22T08:17:00.832Z,7.61
2016-10-22T08:18:00.334Z,7.67
2016-10-22T08:19:02.448Z,7.79
2016-10-22T08:20:00.503Z,7.7
2016-10-22T08:21:00.343Z,7.75
2016-10-22T08:22:00.539Z,7.69
2016-10-22T08:23:01.003Z,7.83
2016-10-22T08:24:00.636Z,7.88
2016-10-22T08:25:00.973Z,7.85
2016-10-22T08:26:01.445Z,7.91
2016-10-22T08:27:00.673Z,7.87
2016-10-22T08:28:00.822Z,7.88
2016-10-22T08:29:00.990Z,7.98
2016-10-22T08:30:00.904Z,8.01
2016-10-22T08:31:01.185Z,8.08
2016-10-22T08:32:00.149Z,8.13
2016-10-22T08:33:01.758Z,8.13
2016-10-22T08:34:00.732Z,8.16
2016-10-22T08:35:01.532Z,8.13
2016-10-22T08:36:01.286Z,8.26
2016-10-22T08:37:01.931Z,8.23
2016-10-22T08:38:01.018Z,8.28
2016-10-22T08:39:01.004Z,8.28
2016-10-22T08:40:01.228Z,8.28
2016-10-22T08:41:01.365Z,8.33
2016-10-22T08:42:01.852Z,8.33
2016-10-22T08:43:00.584Z,8.34
2016-10-22T08:44:00.616Z,8.34
2016-10-22T08:45:00.826Z,8.31
2016-10-22T08:46:00.818Z,8.38
2016-10-22T08:47:00.863Z,8.51
2016-10-22T08:48:01.926Z,8.45
2016-10-22T08:49:00.942Z,8.45
2016-10-22T08:50:01.269Z,8.49
2016-10-22T08:51:00.982Z,8.46
2016-10-22T08:52:01.443Z,8.45
2016-10-22T08:53:01.311Z,8.49
2016-10-22T08:54:00.830Z,8.49
2016-10-22T08:55:01.208Z,8.48
2016-10-22T08:56:01.029Z,8.53
2016-10-22T08:57:01.267Z,8.63
2016-10-22T08:58:02.368Z,8.74
2016-10-22T08:59:01.198Z,8.64
2016-10-22T09:00:02.259Z,8.78
2016-10-22T09:01:02.859Z,8.73
2016-10-22T09:02:01.864Z,8.82
2016-10-22T09:03:02.064Z,8.82
2016-10-22T09:04:01.324Z,8.79
2016-10-22T09:05:00.730Z,8.81
2016-10-22T09:06:01.613Z,8.92
2016-10-22T09:07:01.801Z,8.92
2016-10-22T09:08:01.764Z,9.06
2016-10-22T09:09:01.614Z,9.03
2016-10-22T09:10:01.062Z,8.99
2016-10-22T09:11:01.731Z,8.99
2016-10-22T09:12:01.389Z,8.94
2016-10-22T09:13:01.206Z,9.04
2016-10-22T09:14:03.025Z,9.14
2016-10-22T09:15:03.247Z,9.11
2016-10-22T09:16:01.823Z,9.26
2016-10-22T09:17:01.678Z,9.37
2016-10-22T09:18:02.642Z,9.34
2016-10-22T09:19:01.903Z,9.48
2016-10-22T09:20:02.601Z,9.5
2016-10-22T09:21:03.128Z,9.46
2016-10-22T09:22:01.645Z,9.51
2016-10-22T09:23:02.548Z,9.61
2016-10-22T09:24:02.779Z,9.73
2016-10-22T09:25:02.386Z,9.83
2016-10-22T09:26:02.143Z,9.87
2016-10-22T09:27:01.844Z,9.98
2016-10-22T09:28:02.291Z,9.97
2016-10-22T09:29:01.913Z,9.95
2016-10-22T09:30:01.673Z,9.95
2016-10-22T09:31:01.998Z,9.97
2016-10-22T09:32:02.641Z,10.01
2016-10-22T09:33:02.085Z,9.97
2016-10-22T09:34:02.917Z,9.94
2016-10-22T09:35:01.969Z,9.94
2016-10-22T09:36:02.420Z,9.82
2016-10-22T09:37:02.195Z,9.62
2016-10-22T09:38:02.471Z,9.69
2016-10-22T09:39:02.638Z,9.69
2016-10-22T09:40:01.593Z,9.69
2016-10-22T09:41:01.853Z,9.69
2016-10-22T09:42:01.635Z,9.69
2016-10-22T09:43:01.594Z,9.72
2016-10-22T09:44:01.933Z,9.56
2016-10-22T09:45:02.688Z,9.62
2016-10-22T09:46:02.701Z,9.76
2016-10-22T09:47:03.075Z,9.82
2016-10-22T09:48:02.766Z,9.74
2016-10-22T09:49:02.306Z,9.77
2016-10-22T09:50:02.025Z,9.92
2016-10-22T09:51:03.607Z,10.05
2016-10-22T09:52:02.079Z,10.04
2016-10-22T09:53:02.827Z,10.15
2016-10-22T09:54:02.215Z,10.23
2016-10-22T09:55:02.235Z,10.17
2016-10-22T09:56:02.284Z,10.26
2016-10-22T09:57:03.191Z,10.15
2016-10-22T09:58:01.879Z,10.17
2016-10-22T09:59:03.349Z,10.12
2016-10-22T10:00:02.400Z,10.1
2016-10-22T10:01:03.073Z,10.16
2016-10-22T10:02:02.633Z,10.04
2016-10-22T10:03:04.022Z,10.1
2016-10-22T10:04:02.356Z,10.02
2016-10-22T10:05:01.755Z,10.02
2016-10-22T10:06:02.571Z,9.92
2016-10-22T10:07:02.735Z,9.87
2016-10-22T10:08:03.436Z,9.92
2016-10-22T10:09:02.731Z,9.97
2016-10-22T10:10:03.208Z,9.89
2016-10-22T10:11:02.112Z,10.05
2016-10-22T10:12:02.572Z,10.01
2016-10-22T10:13:04.231Z,9.92
2016-10-22T10:14:02.271Z,9.86
2016-10-22T10:15:02.654Z,9.77
2016-10-22T10:16:03.087Z,9.83
2016-10-22T10:17:02.564Z,9.8
2016-10-22T10:18:03.133Z,9.65
2016-10-22T10:19:02.955Z,9.64
2016-10-22T10:20:03.001Z,9.62
2016-10-22T10:21:02.361Z,9.54
2016-10-22T10:22:04.277Z,9.72
2016-10-22T10:23:02.761Z,9.77
2016-10-22T10:24:03.287Z,9.84
2016-10-22T10:25:03.123Z,9.86
2016-10-22T10:26:03.119Z,9.74
2016-10-22T10:27:03.257Z,9.77
2016-10-22T10:28:02.616Z,9.79
2016-10-22T10:29:02.798Z,9.82
2016-10-22T10:30:02.688Z,9.68
2016-10-22T10:31:03.122Z,9.83
2016-10-22T10:32:03.494Z,9.64
2016-10-22T10:33:03.296Z,9.68
2016-10-22T10:34:02.484Z,9.64
2016-10-22T10:35:02.891Z,9.55
2016-10-22T10:36:03.503Z,9.48
2016-10-22T10:37:02.633Z,9.37
2016-10-22T10:38:02.942Z,9.34
2016-10-22T10:39:03.097Z,9.39
2016-10-22T10:40:02.960Z,9.28
2016-10-22T10:41:02.825Z,9.28
2016-10-22T10:42:03.375Z,9.26
2016-10-22T10:43:04.895Z,9.39
2016-10-22T10:44:02.389Z,9.34
2016-10-22T10:45:04.160Z,9.41
2016-10-22T10:46:03.723Z,9.36
2016-10-22T10:47:03.228Z,9.37
2016-10-22T10:48:03.411Z,9.37
2016-10-22T10:49:03.701Z,9.36
2016-10-22T10:50:04.249Z,9.5
2016-10-22T10:51:04.173Z,9.39
2016-10-22T10:52:03.828Z,9.36
2016-10-22T10:53:03.275Z,9.39
2016-10-22T10:54:03.754Z,9.44
2016-10-22T10:55:03.304Z,9.41
2016-10-22T10:56:03.392Z,9.43
2016-10-22T10:57:03.187Z,9.54
2016-10-22T10:58:03.185Z,9.43
2016-10-22T10:59:03.198Z,9.48
2016-10-22T11:00:03.600Z,9.46
2016-10-22T11:01:04.262Z,9.36
2016-10-22T11:02:03.917Z,9.37
2016-10-22T11:03:04.735Z,9.37
2016-10-22T11:04:03.553Z,9.31
2016-10-22T11:05:03.496Z,9.29
2016-10-22T11:06:03.674Z,9.28
2016-10-22T11:07:03.200Z,9.34
2016-10-22T11:08:03.569Z,9.37
2016-10-22T11:09:04.499Z,9.36
2016-10-22T11:10:03.472Z,9.37
2016-10-22T11:11:04.049Z,9.34
2016-10-22T11:12:03.484Z,9.36
2016-10-22T11:13:04.186Z,9.36
2016-10-22T11:14:04.504Z,9.25
2016-10-22T11:15:04.051Z,9.32
2016-10-22T11:16:04.148Z,9.29
2016-10-22T11:17:03.502Z,9.31
2016-10-22T11:18:03.707Z,9.22
2016-10-22T11:19:04.700Z,9.32
2016-10-22T11:20:04.515Z,9.36
2016-10-22T11:21:04.310Z,9.29
2016-10-22T11:22:03.723Z,9.25
2016-10-22T11:23:03.392Z,9.29
2016-10-22T11:24:04.625Z,9.28
2016-10-22T11:25:05.044Z,9.23
2016-10-22T11:26:03.718Z,9.23
2016-10-22T11:27:04.389Z,9.31
2016-10-22T11:28:03.807Z,9.26
2016-10-22T11:29:03.613Z,9.34
2016-10-22T11:30:04.593Z,9.22
2016-10-22T11:31:04.405Z,9.34
2016-10-22T11:32:05.690Z,9.34
2016-10-22T11:33:04.194Z,9.39
2016-10-22T11:34:04.354Z,9.54
2016-10-22T11:35:04.138Z,9.51
2016-10-22T11:36:03.576Z,9.44
2016-10-22T11:37:03.570Z,9.58
2016-10-22T11:38:04.916Z,9.64
2016-10-22T11:39:04.727Z,9.72
2016-10-22T11:40:04.911Z,9.73
2016-10-22T11:41:04.726Z,9.66
2016-10-22T11:42:04.652Z,9.79
2016-10-22T11:43:04.369Z,9.8
2016-10-22T11:44:05.088Z,9.84
2016-10-22T11:45:04.723Z,9.92
2016-10-22T11:46:04.209Z,9.95
2016-10-22T11:47:04.471Z,9.98
2016-10-22T11:48:05.182Z,9.97
2016-10-22T11:49:04.567Z,9.97
2016-10-22T11:50:05.687Z,10.04
2016-10-22T11:51:05.753Z,10.12
2016-10-22T11:52:05.222Z,10.13
2016-10-22T11:53:05.023Z,9.98
2016-10-22T11:54:05.119Z,9.94
2016-10-22T11:55:04.216Z,9.94
2016-10-22T11:56:04.681Z,10.09
2016-10-22T11:57:04.875Z,10.12
2016-10-22T11:58:04.910Z,10.09
2016-10-22T11:59:04.522Z,10.2
2016-10-22T12:00:04.732Z,10.2
2016-10-22T12:01:04.681Z,10.22
2016-10-22T12:02:05.064Z,10.23
2016-10-22T12:03:04.542Z,10.26
2016-10-22T12:04:05.028Z,10.23
2016-10-22T12:05:04.499Z,10.3
2016-10-22T12:06:05.574Z,10.33
2016-10-22T12:07:04.707Z,10.33
2016-10-22T12:08:04.835Z,10.4
2016-10-22T12:09:04.839Z,10.25
2016-10-22T12:10:04.817Z,10.34
2016-10-22T12:11:04.357Z,10.37
2016-10-22T12:12:05.322Z,10.35
2016-10-22T12:13:05.539Z,10.38
2016-10-22T12:14:04.393Z,10.35
2016-10-22T12:15:05.527Z,10.35
2016-10-22T12:16:05.106Z,10.46
2016-10-22T12:17:04.921Z,10.46
2016-10-22T12:18:05.553Z,10.42
2016-10-22T12:19:05.270Z,10.81
2016-10-22T12:20:06.041Z,10.79
2016-10-22T12:21:05.456Z,10.89
2016-10-22T12:22:04.939Z,10.68
2016-10-22T12:23:05.331Z,10.69
2016-10-22T12:24:05.247Z,10.59
2016-10-22T12:25:05.660Z,10.53
2016-10-22T12:26:05.230Z,10.56
2016-10-22T12:27:04.904Z,10.67
2016-10-22T12:28:05.733Z,10.75
2016-10-22T12:29:06.480Z,10.92
2016-10-22T12:30:05.315Z,10.92
2016-10-22T12:31:05.191Z,10.81
2016-10-22T12:32:05.419Z,10.87
2016-10-22T12:33:05.160Z,11.05
2016-10-22T12:34:06.138Z,11.05
2016-10-22T12:35:05.204Z,11.05
2016-10-22T12:36:04.709Z,11.15
2016-10-22T12:37:05.713Z,11.02
2016-10-22T12:38:05.960Z,11.08
2016-10-22T12:39:06.748Z,11.02
2016-10-22T12:40:05.954Z,10.78
2016-10-22T12:41:06.039Z,10.82
2016-10-22T12:42:06.139Z,10.68
2016-10-22T12:43:05.825Z,10.63
2016-10-22T12:44:05.479Z,10.51
2016-10-22T12:45:05.508Z,10.53
2016-10-22T12:46:05.136Z,10.51
2016-10-22T12:47:05.234Z,10.44
2016-10-22T12:48:05.624Z,10.34
2016-10-22T12:49:05.185Z,10.37
2016-10-22T12:50:05.748Z,10.49
2016-10-22T12:51:05.726Z,10.44
2016-10-22T12:52:05.628Z,10.34
2016-10-22T12:53:06.774Z,10.48
2016-10-22T12:54:05.101Z,10.48
2016-10-22T12:55:05.653Z,10.48
2016-10-22T12:56:05.590Z,10.56
2016-10-22T12:57:06.693Z,10.6
2016-10-22T12:58:05.999Z,10.67
2016-10-22T12:59:05.679Z,10.53
2016-10-22T13:00:05.608Z,10.75
2016-10-22T13:01:06.499Z,10.69
2016-10-22T13:02:06.386Z,10.75
2016-10-22T13:03:05.895Z,10.75
2016-10-22T13:04:05.614Z,10.86
2016-10-22T13:05:06.098Z,10.86
2016-10-22T13:06:05.984Z,10.86
2016-10-22T13:07:06.022Z,10.86
2016-10-22T13:08:05.771Z,10.86
2016-10-22T13:09:05.790Z,10.82
2016-10-22T13:10:05.847Z,10.82
2016-10-22T13:11:05.979Z,10.54
2016-10-22T13:12:06.200Z,10.61
2016-10-22T13:13:05.637Z,10.64
2016-10-22T13:14:05.707Z,10.56
2016-10-22T13:15:05.883Z,10.48
2016-10-22T13:16:05.946Z,10.53
2016-10-22T13:17:05.287Z,10.57
2016-10-22T13:18:05.854Z,10.72